sensor_id;sensor_type;location;lat;lon;timestamp;noise_LAeq;noise_LA_min;noise_LA_max;noise_LA01;noise_LA95
40465;Laerm;30489;48.982;8.394;2022-10-16T00:01:11;38.89;35.66;41.14;;
40465;Laerm;30489;48.982;8.394;2022-10-16T00:03:22;38.88;35.36;43.24;;
40465;Laerm;30489;48.982;8.394;2022-10-16T00:05:33;38.93;35.94;41.06;;
40465;Laerm;30489;48.982;8.394;2022-10-16T00:07:47;38.90;35.66;41.53;;
40465;Laerm;30489;48.982;8.394;2022-10-16T00:09:58;38.85;36.20;41.38;;
40465;Laerm;30489;48.982;8.394;2022-10-16T00:12:08;38.86;35.94;41.14;;
40465;Laerm;30489;48.982;8.394;2022-10-16T00:14:18;38.82;35.36;43.49;;
40465;Laerm;30489;48.982;8.394;2022-10-16T00:16:28;38.79;35.94;41.22;;
40465;Laerm;30489;48.982;8.394;2022-10-16T00:18:39;38.75;35.94;41.82;;
40465;Laerm;30489;48.982;8.394;2022-10-16T00:20:49;38.78;36.45;46.15;;
40465;Laerm;30489;48.982;8.394;2022-10-16T00:22:59;38.82;35.66;41.14;;
40465;Laerm;30489;48.982;8.394;2022-10-16T00:25:10;38.83;34.69;40.89;;
40465;Laerm;30489;48.982;8.394;2022-10-16T00:27:20;38.84;35.66;41.30;;
40465;Laerm;30489;48.982;8.394;2022-10-16T00:29:30;38.81;35.94;42.29;;
40465;Laerm;30489;48.982;8.394;2022-10-16T00:31:40;38.79;35.36;41.30;;
40465;Laerm;30489;48.982;8.394;2022-10-16T00:33:51;38.83;36.20;41.19;;
40465;Laerm;30489;48.982;8.394;2022-10-16T00:36:02;38.82;35.94;40.89;;
40465;Laerm;30489;48.982;8.394;2022-10-16T00:38:12;38.85;35.94;41.11;;
40465;Laerm;30489;48.982;8.394;2022-10-16T00:40:23;38.93;36.20;42.82;;
40465;Laerm;30489;48.982;8.394;2022-10-16T00:42:33;38.86;35.36;42.41;;
40465;Laerm;30489;48.982;8.394;2022-10-16T00:44:47;38.87;36.20;41.82;;
40465;Laerm;30489;48.982;8.394;2022-10-16T00:46:59;38.90;35.94;42.93;;
40465;Laerm;30489;48.982;8.394;2022-10-16T00:49:10;38.92;36.20;42.35;;
40465;Laerm;30489;48.982;8.394;2022-10-16T00:51:23;38.84;35.94;41.22;;
40465;Laerm;30489;48.982;8.394;2022-10-16T00:53:35;38.86;35.66;44.97;;
40465;Laerm;30489;48.982;8.394;2022-10-16T00:55:46;38.84;35.66;45.97;;
40465;Laerm;30489;48.982;8.394;2022-10-16T00:57:56;38.85;35.94;41.22;;
40465;Laerm;30489;48.982;8.394;2022-10-16T01:00:09;38.96;35.66;41.30;;
40465;Laerm;30489;48.982;8.394;2022-10-16T01:02:20;38.93;35.94;40.98;;
40465;Laerm;30489;48.982;8.394;2022-10-16T01:04:32;38.85;35.04;40.89;;
40465;Laerm;30489;48.982;8.394;2022-10-16T01:09:07;38.89;35.66;41.89;;
40465;Laerm;30489;48.982;8.394;2022-10-16T01:13:33;38.90;35.94;41.22;;
40465;Laerm;30489;48.982;8.394;2022-10-16T01:18:50;38.83;35.94;41.06;;
40465;Laerm;30489;48.982;8.394;2022-10-16T01:21:03;38.84;35.66;42.93;;
40465;Laerm;30489;48.982;8.394;2022-10-16T01:23:17;38.83;35.36;44.65;;
40465;Laerm;30489;48.982;8.394;2022-10-16T01:28:00;38.79;35.94;44.03;;
40465;Laerm;30489;48.982;8.394;2022-10-16T01:30:21;38.74;35.94;42.59;;
40465;Laerm;30489;48.982;8.394;2022-10-16T01:32:38;38.77;35.94;42.98;;
40465;Laerm;30489;48.982;8.394;2022-10-16T01:35:09;38.80;35.66;43.72;;
40465;Laerm;30489;48.982;8.394;2022-10-16T01:37:22;38.81;35.94;41.06;;
40465;Laerm;30489;48.982;8.394;2022-10-16T01:39:35;38.80;35.66;41.06;;
40465;Laerm;30489;48.982;8.394;2022-10-16T01:41:58;38.75;35.66;40.80;;
40465;Laerm;30489;48.982;8.394;2022-10-16T01:44:18;38.71;35.04;45.36;;
40465;Laerm;30489;48.982;8.394;2022-10-16T01:46:30;38.71;35.04;40.89;;
40465;Laerm;30489;48.982;8.394;2022-10-16T01:48:41;38.76;35.66;42.76;;
40465;Laerm;30489;48.982;8.394;2022-10-16T01:51:03;38.74;35.36;40.71;;
40465;Laerm;30489;48.982;8.394;2022-10-16T01:53:15;38.73;35.36;42.65;;
40465;Laerm;30489;48.982;8.394;2022-10-16T01:55:28;38.74;35.36;40.89;;
40465;Laerm;30489;48.982;8.394;2022-10-16T01:57:41;38.75;35.36;48.39;;
40465;Laerm;30489;48.982;8.394;2022-10-16T01:59:54;38.78;35.66;40.89;;
40465;Laerm;30489;48.982;8.394;2022-10-16T02:02:07;38.86;36.20;44.47;;
40465;Laerm;30489;48.982;8.394;2022-10-16T02:06:28;38.78;35.66;41.38;;
40465;Laerm;30489;48.982;8.394;2022-10-16T02:08:39;38.83;35.66;40.98;;
40465;Laerm;30489;48.982;8.394;2022-10-16T02:10:54;38.79;35.94;41.06;;
40465;Laerm;30489;48.982;8.394;2022-10-16T02:13:22;38.79;35.94;40.98;;
40465;Laerm;30489;48.982;8.394;2022-10-16T02:15:33;38.84;35.66;41.30;;
40465;Laerm;30489;48.982;8.394;2022-10-16T02:17:44;38.83;35.94;40.89;;
40465;Laerm;30489;48.982;8.394;2022-10-16T02:19:55;38.89;35.36;40.98;;
40465;Laerm;30489;48.982;8.394;2022-10-16T02:22:06;38.71;35.66;40.80;;
40465;Laerm;30489;48.982;8.394;2022-10-16T02:26:30;38.75;35.66;41.30;;
40465;Laerm;30489;48.982;8.394;2022-10-16T02:28:46;38.77;35.94;40.80;;
40465;Laerm;30489;48.982;8.394;2022-10-16T02:30:58;38.79;35.94;40.80;;
40465;Laerm;30489;48.982;8.394;2022-10-16T02:33:10;38.81;35.94;40.89;;
40465;Laerm;30489;48.982;8.394;2022-10-16T02:35:23;38.76;35.94;40.98;;
40465;Laerm;30489;48.982;8.394;2022-10-16T02:37:34;38.77;36.20;46.02;;
40465;Laerm;30489;48.982;8.394;2022-10-16T02:39:45;38.75;35.66;43.09;;
40465;Laerm;30489;48.982;8.394;2022-10-16T02:41:56;38.76;36.45;41.38;;
40465;Laerm;30489;48.982;8.394;2022-10-16T02:44:06;38.74;35.94;42.16;;
40465;Laerm;30489;48.982;8.394;2022-10-16T02:46:16;38.77;35.36;43.58;;
40465;Laerm;30489;48.982;8.394;2022-10-16T02:48:27;38.81;35.66;41.06;;
40465;Laerm;30489;48.982;8.394;2022-10-16T02:50:37;38.80;35.66;41.06;;
40465;Laerm;30489;48.982;8.394;2022-10-16T02:52:48;38.80;35.94;40.98;;
40465;Laerm;30489;48.982;8.394;2022-10-16T02:54:58;38.82;35.36;42.47;;
40465;Laerm;30489;48.982;8.394;2022-10-16T02:57:08;38.76;35.66;41.30;;
40465;Laerm;30489;48.982;8.394;2022-10-16T02:59:18;38.75;35.94;41.03;;
40465;Laerm;30489;48.982;8.394;2022-10-16T03:01:28;38.78;35.04;41.38;;
40465;Laerm;30489;48.982;8.394;2022-10-16T03:03:39;38.74;35.86;41.22;;
40465;Laerm;30489;48.982;8.394;2022-10-16T03:05:49;38.80;35.66;40.89;;
40465;Laerm;30489;48.982;8.394;2022-10-16T03:07:59;38.69;35.66;41.22;;
40465;Laerm;30489;48.982;8.394;2022-10-16T03:10:10;38.65;35.36;40.96;;
40465;Laerm;30489;48.982;8.394;2022-10-16T03:12:21;38.66;36.20;41.38;;
40465;Laerm;30489;48.982;8.394;2022-10-16T03:14:31;38.66;35.36;40.80;;
40465;Laerm;30489;48.982;8.394;2022-10-16T03:16:41;38.73;35.94;46.30;;
40465;Laerm;30489;48.982;8.394;2022-10-16T03:18:52;38.73;35.36;41.14;;
40465;Laerm;30489;48.982;8.394;2022-10-16T03:21:02;38.67;35.04;40.98;;
40465;Laerm;30489;48.982;8.394;2022-10-16T03:23:12;38.71;35.66;40.98;;
40465;Laerm;30489;48.982;8.394;2022-10-16T03:25:22;38.68;35.36;40.62;;
40465;Laerm;30489;48.982;8.394;2022-10-16T03:27:32;38.69;35.94;40.98;;
40465;Laerm;30489;48.982;8.394;2022-10-16T03:29:43;38.66;35.04;40.98;;
40465;Laerm;30489;48.982;8.394;2022-10-16T03:31:53;38.64;35.36;40.89;;
40465;Laerm;30489;48.982;8.394;2022-10-16T03:34:03;38.67;35.36;40.62;;
40465;Laerm;30489;48.982;8.394;2022-10-16T03:36:13;38.66;35.66;40.98;;
40465;Laerm;30489;48.982;8.394;2022-10-16T03:38:24;38.66;35.36;41.06;;
40465;Laerm;30489;48.982;8.394;2022-10-16T03:40:34;38.63;35.94;40.62;;
40465;Laerm;30489;48.982;8.394;2022-10-16T03:42:44;38.65;35.94;40.71;;
40465;Laerm;30489;48.982;8.394;2022-10-16T03:44:55;38.76;35.94;41.68;;
40465;Laerm;30489;48.982;8.394;2022-10-16T03:47:05;38.78;35.66;41.38;;
40465;Laerm;30489;48.982;8.394;2022-10-16T03:49:15;38.89;35.04;41.22;;
40465;Laerm;30489;48.982;8.394;2022-10-16T03:51:25;38.76;35.66;41.14;;
40465;Laerm;30489;48.982;8.394;2022-10-16T03:53:35;38.77;35.66;40.98;;
40465;Laerm;30489;48.982;8.394;2022-10-16T03:55:46;38.76;35.36;41.30;;
40465;Laerm;30489;48.982;8.394;2022-10-16T03:57:56;38.79;35.94;40.89;;
40465;Laerm;30489;48.982;8.394;2022-10-16T04:00:06;38.70;35.36;40.98;;
40465;Laerm;30489;48.982;8.394;2022-10-16T04:02:17;38.68;36.20;41.61;;
40465;Laerm;30489;48.982;8.394;2022-10-16T04:04:27;38.63;35.94;40.89;;
40465;Laerm;30489;48.982;8.394;2022-10-16T04:06:37;38.62;34.69;40.62;;
40465;Laerm;30489;48.982;8.394;2022-10-16T04:08:47;38.65;35.36;41.14;;
40465;Laerm;30489;48.982;8.394;2022-10-16T04:10:58;38.72;35.36;45.20;;
40465;Laerm;30489;48.982;8.394;2022-10-16T04:13:08;38.70;35.94;41.38;;
40465;Laerm;30489;48.982;8.394;2022-10-16T04:15:18;38.67;35.66;40.89;;
40465;Laerm;30489;48.982;8.394;2022-10-16T04:17:28;38.67;35.66;42.82;;
40465;Laerm;30489;48.982;8.394;2022-10-16T04:19:38;38.73;35.94;44.65;;
40465;Laerm;30489;48.982;8.394;2022-10-16T04:21:49;38.67;35.66;40.89;;
40465;Laerm;30489;48.982;8.394;2022-10-16T04:23:59;38.70;35.36;41.53;;
40465;Laerm;30489;48.982;8.394;2022-10-16T04:26:09;38.77;35.94;41.89;;
40465;Laerm;30489;48.982;8.394;2022-10-16T04:28:20;38.77;35.94;43.29;;
40465;Laerm;30489;48.982;8.394;2022-10-16T04:30:30;38.80;35.66;42.09;;
40465;Laerm;30489;48.982;8.394;2022-10-16T04:32:40;38.65;35.86;40.80;;
40465;Laerm;30489;48.982;8.394;2022-10-16T04:34:51;38.69;35.66;40.80;;
40465;Laerm;30489;48.982;8.394;2022-10-16T04:37:01;38.69;35.86;45.54;;
40465;Laerm;30489;48.982;8.394;2022-10-16T04:39:11;38.74;35.66;41.68;;
40465;Laerm;30489;48.982;8.394;2022-10-16T04:41:21;38.76;35.66;43.19;;
40465;Laerm;30489;48.982;8.394;2022-10-16T04:43:32;38.79;35.66;43.09;;
40465;Laerm;30489;48.982;8.394;2022-10-16T04:45:42;38.77;35.94;41.30;;
40465;Laerm;30489;48.982;8.394;2022-10-16T04:47:52;38.77;35.94;42.98;;
40465;Laerm;30489;48.982;8.394;2022-10-16T04:50:03;38.75;35.36;42.71;;
40465;Laerm;30489;48.982;8.394;2022-10-16T04:52:13;40.21;35.94;70.35;;
40465;Laerm;30489;48.982;8.394;2022-10-16T04:54:23;38.76;35.66;41.89;;
40465;Laerm;30489;48.982;8.394;2022-10-16T04:56:33;38.70;35.66;45.36;;
40465;Laerm;30489;48.982;8.394;2022-10-16T04:58:50;38.74;35.36;40.80;;
40465;Laerm;30489;48.982;8.394;2022-10-16T05:01:00;38.75;35.66;43.29;;
40465;Laerm;30489;48.982;8.394;2022-10-16T05:03:10;38.81;35.66;44.62;;
40465;Laerm;30489;48.982;8.394;2022-10-16T05:05:20;39.40;35.36;61.10;;
40465;Laerm;30489;48.982;8.394;2022-10-16T05:07:31;38.98;35.94;44.83;;
40465;Laerm;30489;48.982;8.394;2022-10-16T05:09:41;39.61;35.66;65.31;;
40465;Laerm;30489;48.982;8.394;2022-10-16T05:11:51;38.93;35.66;48.92;;
40465;Laerm;30489;48.982;8.394;2022-10-16T05:14:02;38.92;35.36;44.07;;
40465;Laerm;30489;48.982;8.394;2022-10-16T05:16:12;40.36;35.36;69.14;;
40465;Laerm;30489;48.982;8.394;2022-10-16T05:18:22;39.49;35.94;64.88;;
40465;Laerm;30489;48.982;8.394;2022-10-16T05:20:32;39.54;36.20;64.00;;
40465;Laerm;30489;48.982;8.394;2022-10-16T05:22:43;41.16;35.04;69.71;;
40465;Laerm;30489;48.982;8.394;2022-10-16T05:24:53;39.77;35.36;65.70;;
40465;Laerm;30489;48.982;8.394;2022-10-16T05:27:03;41.01;35.66;67.03;;
40465;Laerm;30489;48.982;8.394;2022-10-16T05:29:14;39.75;35.36;64.01;;
40465;Laerm;30489;48.982;8.394;2022-10-16T05:31:24;39.06;35.66;61.19;;
40465;Laerm;30489;48.982;8.394;2022-10-16T05:33:34;39.29;35.66;62.61;;
40465;Laerm;30489;48.982;8.394;2022-10-16T05:35:44;38.96;35.86;47.59;;
40465;Laerm;30489;48.982;8.394;2022-10-16T05:37:55;38.79;35.66;41.46;;
40465;Laerm;30489;48.982;8.394;2022-10-16T05:40:05;39.12;33.44;57.36;;
40465;Laerm;30489;48.982;8.394;2022-10-16T05:42:15;38.86;36.20;44.31;;
40465;Laerm;30489;48.982;8.394;2022-10-16T05:44:26;38.89;35.94;46.76;;
40465;Laerm;30489;48.982;8.394;2022-10-16T05:46:36;39.45;35.94;63.19;;
40465;Laerm;30489;48.982;8.394;2022-10-16T05:48:46;38.92;35.94;52.52;;
40465;Laerm;30489;48.982;8.394;2022-10-16T05:51:00;38.74;35.94;44.51;;
40465;Laerm;30489;48.982;8.394;2022-10-16T05:53:11;38.74;35.94;42.35;;
40465;Laerm;30489;48.982;8.394;2022-10-16T05:55:21;39.23;35.59;62.19;;
40465;Laerm;30489;48.982;8.394;2022-10-16T05:57:31;38.75;35.94;46.55;;
40465;Laerm;30489;48.982;8.394;2022-10-16T05:59:41;38.90;35.66;55.55;;
40465;Laerm;30489;48.982;8.394;2022-10-16T06:01:51;38.73;35.66;48.80;;
40465;Laerm;30489;48.982;8.394;2022-10-16T06:04:03;38.73;35.66;47.95;;
40465;Laerm;30489;48.982;8.394;2022-10-16T06:06:14;38.73;35.36;43.29;;
40465;Laerm;30489;48.982;8.394;2022-10-16T06:08:25;38.71;35.66;41.94;;
40465;Laerm;30489;48.982;8.394;2022-10-16T06:10:35;39.15;35.66;55.69;;
40465;Laerm;30489;48.982;8.394;2022-10-16T06:12:45;38.81;35.94;41.06;;
40465;Laerm;30489;48.982;8.394;2022-10-16T06:14:56;40.58;35.66;64.57;;
40465;Laerm;30489;48.982;8.394;2022-10-16T06:17:06;39.01;35.66;60.52;;
40465;Laerm;30489;48.982;8.394;2022-10-16T06:19:16;38.87;35.66;55.88;;
40465;Laerm;30489;48.982;8.394;2022-10-16T06:21:27;38.70;33.90;41.14;;
40465;Laerm;30489;48.982;8.394;2022-10-16T06:23:38;38.67;35.36;40.98;;
40465;Laerm;30489;48.982;8.394;2022-10-16T06:25:48;38.68;35.66;40.71;;
40465;Laerm;30489;48.982;8.394;2022-10-16T06:27:58;38.72;35.36;41.53;;
40465;Laerm;30489;48.982;8.394;2022-10-16T06:30:09;38.76;35.94;41.30;;
40465;Laerm;30489;48.982;8.394;2022-10-16T06:32:19;38.71;35.66;41.38;;
40465;Laerm;30489;48.982;8.394;2022-10-16T06:34:30;38.63;35.66;41.38;;
40465;Laerm;30489;48.982;8.394;2022-10-16T06:36:40;38.64;35.66;41.06;;
40465;Laerm;30489;48.982;8.394;2022-10-16T06:38:51;38.66;35.04;40.62;;
40465;Laerm;30489;48.982;8.394;2022-10-16T06:41:02;38.78;36.10;40.89;;
40465;Laerm;30489;48.982;8.394;2022-10-16T06:43:12;38.70;35.04;40.89;;
40465;Laerm;30489;48.982;8.394;2022-10-16T06:45:22;38.70;35.66;40.71;;
40465;Laerm;30489;48.982;8.394;2022-10-16T06:47:33;38.69;35.36;40.80;;
40465;Laerm;30489;48.982;8.394;2022-10-16T06:49:43;38.76;35.94;41.30;;
40465;Laerm;30489;48.982;8.394;2022-10-16T06:51:53;39.27;35.59;54.62;;
40465;Laerm;30489;48.982;8.394;2022-10-16T06:54:03;38.88;35.94;51.91;;
40465;Laerm;30489;48.982;8.394;2022-10-16T06:56:18;38.73;35.94;41.06;;
40465;Laerm;30489;48.982;8.394;2022-10-16T06:58:28;38.71;35.66;41.38;;
40465;Laerm;30489;48.982;8.394;2022-10-16T07:00:38;38.69;35.66;44.58;;
40465;Laerm;30489;48.982;8.394;2022-10-16T07:02:49;39.10;35.36;59.80;;
40465;Laerm;30489;48.982;8.394;2022-10-16T07:04:59;38.75;35.94;53.92;;
40465;Laerm;30489;48.982;8.394;2022-10-16T07:07:09;38.69;35.04;49.60;;
40465;Laerm;30489;48.982;8.394;2022-10-16T07:09:20;38.72;35.04;49.47;;
40465;Laerm;30489;48.982;8.394;2022-10-16T07:11:30;38.73;35.94;48.58;;
40465;Laerm;30489;48.982;8.394;2022-10-16T07:13:41;38.69;35.36;47.18;;
40465;Laerm;30489;48.982;8.394;2022-10-16T07:15:52;38.63;35.36;45.01;;
40465;Laerm;30489;48.982;8.394;2022-10-16T07:18:02;38.65;35.94;44.11;;
40465;Laerm;30489;48.982;8.394;2022-10-16T07:20:12;38.66;35.66;44.47;;
40465;Laerm;30489;48.982;8.394;2022-10-16T07:22:22;38.70;35.66;40.89;;
40465;Laerm;30489;48.982;8.394;2022-10-16T07:24:32;38.66;35.04;42.30;;
40465;Laerm;30489;48.982;8.394;2022-10-16T07:26:43;38.63;35.66;41.68;;
40465;Laerm;30489;48.982;8.394;2022-10-16T07:28:54;38.64;35.66;40.89;;
40465;Laerm;30489;48.982;8.394;2022-10-16T07:31:05;38.67;35.66;42.22;;
40465;Laerm;30489;48.982;8.394;2022-10-16T07:33:16;38.66;35.94;41.14;;
40465;Laerm;30489;48.982;8.394;2022-10-16T07:35:27;38.62;35.94;44.73;;
40465;Laerm;30489;48.982;8.394;2022-10-16T07:37:37;38.63;35.36;40.80;;
40465;Laerm;30489;48.982;8.394;2022-10-16T07:39:47;38.67;35.59;40.89;;
40465;Laerm;30489;48.982;8.394;2022-10-16T07:41:57;38.73;35.66;49.77;;
40465;Laerm;30489;48.982;8.394;2022-10-16T07:44:08;38.76;35.66;49.98;;
40465;Laerm;30489;48.982;8.394;2022-10-16T07:46:19;38.74;35.66;46.45;;
40465;Laerm;30489;48.982;8.394;2022-10-16T07:48:30;38.70;35.04;42.47;;
40465;Laerm;30489;48.982;8.394;2022-10-16T07:50:41;38.70;35.66;43.39;;
40465;Laerm;30489;48.982;8.394;2022-10-16T07:52:51;38.68;35.36;41.14;;
40465;Laerm;30489;48.982;8.394;2022-10-16T07:55:01;38.69;34.69;48.63;;
40465;Laerm;30489;48.982;8.394;2022-10-16T07:57:13;38.70;35.94;40.89;;
40465;Laerm;30489;48.982;8.394;2022-10-16T07:59:29;38.72;35.66;45.04;;
40465;Laerm;30489;48.982;8.394;2022-10-16T08:01:39;38.70;35.66;41.14;;
40465;Laerm;30489;48.982;8.394;2022-10-16T08:03:50;38.72;36.20;45.23;;
40465;Laerm;30489;48.982;8.394;2022-10-16T08:06:01;38.75;35.66;42.64;;
40465;Laerm;30489;48.982;8.394;2022-10-16T08:08:13;41.27;35.66;69.58;;
40465;Laerm;30489;48.982;8.394;2022-10-16T08:10:24;40.79;35.36;67.52;;
40465;Laerm;30489;48.982;8.394;2022-10-16T08:12:35;42.76;35.36;67.90;;
40465;Laerm;30489;48.982;8.394;2022-10-16T08:14:45;45.37;33.90;69.98;;
40465;Laerm;30489;48.982;8.394;2022-10-16T08:16:55;38.72;35.36;47.10;;
40465;Laerm;30489;48.982;8.394;2022-10-16T08:19:06;38.98;35.94;56.10;;
40465;Laerm;30489;48.982;8.394;2022-10-16T08:21:17;38.89;35.94;50.65;;
40465;Laerm;30489;48.982;8.394;2022-10-16T08:23:28;38.77;35.66;52.15;;
40465;Laerm;30489;48.982;8.394;2022-10-16T08:25:38;38.73;35.66;40.89;;
40465;Laerm;30489;48.982;8.394;2022-10-16T08:27:49;38.75;35.36;40.89;;
40465;Laerm;30489;48.982;8.394;2022-10-16T08:29:59;38.75;35.66;41.22;;
40465;Laerm;30489;48.982;8.394;2022-10-16T08:32:09;43.14;33.44;68.74;;
40465;Laerm;30489;48.982;8.394;2022-10-16T08:34:19;40.43;35.94;65.84;;
40465;Laerm;30489;48.982;8.394;2022-10-16T08:36:30;44.87;35.04;70.73;;
40465;Laerm;30489;48.982;8.394;2022-10-16T08:38:40;40.34;35.94;67.29;;
40465;Laerm;30489;48.982;8.394;2022-10-16T08:40:50;38.92;35.94;50.41;;
40465;Laerm;30489;48.982;8.394;2022-10-16T08:43:08;46.27;34.31;71.95;;
40465;Laerm;30489;48.982;8.394;2022-10-16T08:47:49;39.02;35.66;51.84;;
40465;Laerm;30489;48.982;8.394;2022-10-16T08:50:10;38.88;35.04;41.19;;
40465;Laerm;30489;48.982;8.394;2022-10-16T08:52:20;38.93;35.66;41.38;;
40465;Laerm;30489;48.982;8.394;2022-10-16T08:54:43;38.99;36.20;45.20;;
40465;Laerm;30489;48.982;8.394;2022-10-16T08:56:57;38.90;35.94;41.30;;
40465;Laerm;30489;48.982;8.394;2022-10-16T08:59:10;38.94;36.20;40.98;;
40465;Laerm;30489;48.982;8.394;2022-10-16T09:01:24;38.91;36.20;40.98;;
40465;Laerm;30489;48.982;8.394;2022-10-16T09:10:41;38.85;36.20;41.38;;
40465;Laerm;30489;48.982;8.394;2022-10-16T09:12:58;38.96;36.20;40.98;;
40465;Laerm;30489;48.982;8.394;2022-10-16T09:15:24;38.95;36.20;41.38;;
40465;Laerm;30489;48.982;8.394;2022-10-16T09:20:38;38.89;35.66;41.22;;
40465;Laerm;30489;48.982;8.394;2022-10-16T09:22:29;38.81;35.66;41.14;;
40465;Laerm;30489;48.982;8.394;2022-10-16T09:24:41;38.83;35.94;43.14;;
40465;Laerm;30489;48.982;8.394;2022-10-16T09:26:51;38.86;35.94;41.89;;
40465;Laerm;30489;48.982;8.394;2022-10-16T09:29:02;38.83;35.66;41.96;;
40465;Laerm;30489;48.982;8.394;2022-10-16T09:31:17;38.78;35.66;43.63;;
40465;Laerm;30489;48.982;8.394;2022-10-16T09:33:35;38.79;35.94;40.80;;
40465;Laerm;30489;48.982;8.394;2022-10-16T09:35:50;38.82;36.20;40.89;;
40465;Laerm;30489;48.982;8.394;2022-10-16T09:38:01;38.80;35.66;41.14;;
40465;Laerm;30489;48.982;8.394;2022-10-16T09:40:12;38.83;35.66;41.68;;
40465;Laerm;30489;48.982;8.394;2022-10-16T09:42:24;38.81;35.94;41.30;;
40465;Laerm;30489;48.982;8.394;2022-10-16T09:44:35;38.85;36.20;40.89;;
40465;Laerm;30489;48.982;8.394;2022-10-16T09:46:45;38.86;36.10;41.06;;
40465;Laerm;30489;48.982;8.394;2022-10-16T09:48:57;38.86;35.94;46.15;;
40465;Laerm;30489;48.982;8.394;2022-10-16T09:51:16;38.82;35.94;41.82;;
40465;Laerm;30489;48.982;8.394;2022-10-16T09:53:43;38.81;36.45;41.22;;
40465;Laerm;30489;48.982;8.394;2022-10-16T09:55:54;38.80;35.94;42.16;;
40465;Laerm;30489;48.982;8.394;2022-10-16T09:58:11;38.77;35.94;41.89;;
40465;Laerm;30489;48.982;8.394;2022-10-16T10:00:23;38.79;36.20;43.09;;
40465;Laerm;30489;48.982;8.394;2022-10-16T10:02:34;38.85;35.66;42.98;;
40465;Laerm;30489;48.982;8.394;2022-10-16T10:04:50;38.83;35.66;41.06;;
40465;Laerm;30489;48.982;8.394;2022-10-16T10:07:00;38.81;36.45;45.30;;
40465;Laerm;30489;48.982;8.394;2022-10-16T10:09:16;38.83;35.94;41.53;;
40465;Laerm;30489;48.982;8.394;2022-10-16T10:11:40;38.81;35.66;42.29;;
40465;Laerm;30489;48.982;8.394;2022-10-16T10:13:51;38.87;35.94;43.39;;
40465;Laerm;30489;48.982;8.394;2022-10-16T10:16:01;38.86;35.94;44.39;;
40465;Laerm;30489;48.982;8.394;2022-10-16T10:18:16;38.86;35.94;42.76;;
40465;Laerm;30489;48.982;8.394;2022-10-16T10:22:41;38.80;35.94;40.98;;
40465;Laerm;30489;48.982;8.394;2022-10-16T10:25:15;38.78;36.20;41.61;;
40465;Laerm;30489;48.982;8.394;2022-10-16T10:27:27;38.76;36.20;40.89;;
40465;Laerm;30489;48.982;8.394;2022-10-16T10:29:47;38.89;36.20;54.34;;
40465;Laerm;30489;48.982;8.394;2022-10-16T10:36:43;38.86;36.45;41.82;;
40465;Laerm;30489;48.982;8.394;2022-10-16T10:39:09;38.89;35.94;43.86;;
40465;Laerm;30489;48.982;8.394;2022-10-16T10:45:46;38.91;36.20;41.30;;
40465;Laerm;30489;48.982;8.394;2022-10-16T10:48:03;38.87;35.94;40.98;;
40465;Laerm;30489;48.982;8.394;2022-10-16T10:50:22;38.85;36.20;40.89;;
40465;Laerm;30489;48.982;8.394;2022-10-16T10:52:49;38.90;36.45;41.06;;
40465;Laerm;30489;48.982;8.394;2022-10-16T11:02:15;38.93;36.20;40.80;;
40465;Laerm;30489;48.982;8.394;2022-10-16T11:04:34;38.99;36.45;43.63;;
40465;Laerm;30489;48.982;8.394;2022-10-16T11:09:59;39.04;36.45;50.32;;
40465;Laerm;30489;48.982;8.394;2022-10-16T11:12:00;39.00;36.45;48.76;;
40465;Laerm;30489;48.982;8.394;2022-10-16T11:14:15;39.01;36.20;41.61;;
40465;Laerm;30489;48.982;8.394;2022-10-16T11:16:32;39.01;36.69;42.29;;
40465;Laerm;30489;48.982;8.394;2022-10-16T11:18:49;39.03;36.69;44.62;;
40465;Laerm;30489;48.982;8.394;2022-10-16T11:21:06;38.97;36.20;42.22;;
40465;Laerm;30489;48.982;8.394;2022-10-16T11:23:21;39.08;36.20;41.61;;
40465;Laerm;30489;48.982;8.394;2022-10-16T11:25:33;39.12;36.20;41.03;;
40465;Laerm;30489;48.982;8.394;2022-10-16T11:27:48;39.13;36.69;44.27;;
40465;Laerm;30489;48.982;8.394;2022-10-16T11:30:02;39.11;36.45;41.89;;
40465;Laerm;30489;48.982;8.394;2022-10-16T11:32:19;39.10;35.94;41.22;;
40465;Laerm;30489;48.982;8.394;2022-10-16T11:37:17;39.22;36.91;50.50;;
40465;Laerm;30489;48.982;8.394;2022-10-16T11:39:30;39.29;37.12;41.06;;
40465;Laerm;30489;48.982;8.394;2022-10-16T11:46:28;39.23;36.91;41.38;;
40465;Laerm;30489;48.982;8.394;2022-10-16T11:48:51;39.25;36.91;40.89;;
40465;Laerm;30489;48.982;8.394;2022-10-16T11:51:10;39.32;37.12;40.98;;
40465;Laerm;30489;48.982;8.394;2022-10-16T11:55:53;39.47;37.12;41.46;;
40465;Laerm;30489;48.982;8.394;2022-10-16T11:58:04;39.54;37.70;41.22;;
40465;Laerm;30489;48.982;8.394;2022-10-16T12:00:21;39.57;37.32;41.22;;
40465;Laerm;30489;48.982;8.394;2022-10-16T12:02:49;39.64;37.52;41.75;;
40465;Laerm;30489;48.982;8.394;2022-10-16T12:07:20;39.68;37.88;41.30;;
40465;Laerm;30489;48.982;8.394;2022-10-16T12:09:32;39.65;37.88;41.30;;
40465;Laerm;30489;48.982;8.394;2022-10-16T12:11:44;39.67;37.70;41.68;;
40465;Laerm;30489;48.982;8.394;2022-10-16T12:16:21;39.76;37.52;41.46;;
40465;Laerm;30489;48.982;8.394;2022-10-16T12:18:31;39.76;37.52;41.53;;
40465;Laerm;30489;48.982;8.394;2022-10-16T12:20:42;39.80;37.70;41.53;;
40465;Laerm;30489;48.982;8.394;2022-10-16T12:22:56;39.75;37.52;41.89;;
40465;Laerm;30489;48.982;8.394;2022-10-16T12:25:19;39.67;37.52;42.03;;
40465;Laerm;30489;48.982;8.394;2022-10-16T12:27:31;39.68;37.52;42.16;;
40465;Laerm;30489;48.982;8.394;2022-10-16T12:29:41;39.66;37.70;41.75;;
40465;Laerm;30489;48.982;8.394;2022-10-16T12:31:52;39.79;37.88;41.22;;
40465;Laerm;30489;48.982;8.394;2022-10-16T12:34:03;39.78;37.88;41.61;;
40465;Laerm;30489;48.982;8.394;2022-10-16T12:36:14;39.73;37.70;41.38;;
40465;Laerm;30489;48.982;8.394;2022-10-16T12:38:26;39.82;37.53;49.07;;
40465;Laerm;30489;48.982;8.394;2022-10-16T12:40:37;39.84;37.88;41.38;;
40465;Laerm;30489;48.982;8.394;2022-10-16T12:42:48;39.83;37.70;41.38;;
40465;Laerm;30489;48.982;8.394;2022-10-16T12:44:58;39.91;38.18;41.46;;
40465;Laerm;30489;48.982;8.394;2022-10-16T12:47:18;39.95;37.88;41.41;;
40465;Laerm;30489;48.982;8.394;2022-10-16T12:51:39;39.90;38.05;41.46;;
40465;Laerm;30489;48.982;8.394;2022-10-16T12:54:00;39.95;38.05;41.61;;
40465;Laerm;30489;48.982;8.394;2022-10-16T12:56:14;39.97;38.05;41.68;;
40465;Laerm;30489;48.982;8.394;2022-10-16T12:58:46;39.97;38.21;41.75;;
40465;Laerm;30489;48.982;8.394;2022-10-16T13:01:19;40.00;37.88;41.53;;
40465;Laerm;30489;48.982;8.394;2022-10-16T13:03:48;40.03;38.37;41.38;;
40465;Laerm;30489;48.982;8.394;2022-10-16T13:06:15;40.05;38.21;41.41;;
40465;Laerm;30489;48.982;8.394;2022-10-16T13:11:08;39.95;38.18;41.48;;
40465;Laerm;30489;48.982;8.394;2022-10-16T13:24:42;39.86;37.88;41.38;;
40465;Laerm;30489;48.982;8.394;2022-10-16T13:27:12;39.88;38.21;41.33;;
40465;Laerm;30489;48.982;8.394;2022-10-16T13:29:29;39.89;37.88;41.38;;
40465;Laerm;30489;48.982;8.394;2022-10-16T13:31:40;39.90;37.88;41.38;;
40465;Laerm;30489;48.982;8.394;2022-10-16T13:33:53;39.92;38.05;41.46;;
40465;Laerm;30489;48.982;8.394;2022-10-16T13:36:05;39.84;38.05;41.22;;
40465;Laerm;30489;48.982;8.394;2022-10-16T13:38:17;39.88;38.02;41.38;;
40465;Laerm;30489;48.982;8.394;2022-10-16T13:40:28;39.85;37.52;41.61;;